New Freeport, Pennsylvania
Current Conditions -  °F | °C
As of 3:35 PM on Friday 28 Nov 2014 (Local Time) from KAFJ Reporting Station
Overcast Overcast  
Wind Chill: 20°   Ceiling: 3400
Heat Index: 28°   Visibility: 10mi
Dew Point: 16°   Wind: 8mph
Humidity: 59%   Direction: 230°SW
Pressure: 30.25"   Gusts: NA
Location:  39.76°N, 80.43°W
Report Text: KAFJ 282035Z 23007KT 10SM OVC034 M02/M09 A3025 RMK AO1
Loading
Personal Weather Stations






























Interactive Weather Map New forecast layout! Learn more

10-Day Weather Forecast

Advertisements
Track Severe Weather on mobile